createdAt,value
2022-09-15T00:01:17.129Z,19.17
2022-09-15T00:03:45.260Z,19.23
2022-09-15T00:06:14.920Z,19.31
2022-09-15T00:08:43.507Z,19.33
2022-09-15T00:11:16.249Z,19.40
2022-09-15T00:13:44.706Z,19.37
2022-09-15T00:16:15.201Z,19.31
2022-09-15T00:18:44.930Z,19.26
2022-09-15T00:21:17.539Z,19.25
2022-09-15T00:23:46.148Z,19.09
2022-09-15T00:26:16.031Z,19.00
2022-09-15T00:28:44.593Z,18.89
2022-09-15T00:31:19.154Z,18.81
2022-09-15T00:33:48.972Z,18.74
2022-09-15T00:36:19.444Z,18.66
2022-09-15T00:38:47.880Z,18.67
2022-09-15T00:41:19.187Z,18.65
2022-09-15T00:43:51.123Z,18.59
2022-09-15T00:46:21.480Z,18.59
2022-09-15T00:48:55.517Z,18.56
2022-09-15T00:51:31.012Z,18.55
2022-09-15T00:54:02.918Z,18.53
2022-09-15T00:56:34.725Z,18.55
2022-09-15T01:01:56.736Z,18.56
2022-09-15T01:04:25.033Z,18.53
2022-09-15T01:06:59.568Z,18.49
2022-09-15T01:09:32.467Z,18.44
2022-09-15T01:12:00.909Z,18.41
2022-09-15T01:14:28.929Z,18.35
2022-09-15T01:17:06.818Z,18.34
2022-09-15T01:20:12.193Z,18.29
2022-09-15T01:22:51.402Z,18.25
2022-09-15T01:25:29.648Z,18.25
2022-09-15T01:28:29.696Z,18.23
2022-09-15T01:31:02.973Z,18.20
2022-09-15T01:33:37.657Z,18.17
2022-09-15T01:36:12.546Z,18.18
2022-09-15T01:38:50.688Z,18.18
2022-09-15T01:41:25.462Z,18.20
2022-09-15T01:44:00.941Z,18.21
2022-09-15T01:46:36.186Z,18.21
2022-09-15T01:49:07.616Z,18.20
2022-09-15T01:51:37.782Z,18.22
2022-09-15T01:54:07.756Z,18.23
2022-09-15T01:56:38.214Z,18.21
2022-09-15T01:59:06.488Z,18.23
2022-09-15T02:01:43.957Z,18.22
2022-09-15T02:04:18.209Z,18.20
2022-09-15T02:06:53.839Z,18.17
2022-09-15T02:09:26.226Z,18.17
2022-09-15T02:12:03.004Z,18.16
2022-09-15T02:14:43.592Z,18.13
2022-09-15T02:17:16.691Z,18.10
2022-09-15T02:19:48.848Z,18.02
2022-09-15T02:22:23.441Z,17.97
2022-09-15T02:24:59.056Z,17.96
2022-09-15T02:27:31.804Z,17.94
2022-09-15T02:30:06.150Z,17.91
2022-09-15T02:32:38.268Z,17.91
2022-09-15T02:35:10.435Z,17.91
2022-09-15T02:37:39.731Z,17.89
2022-09-15T02:40:09.380Z,17.84
2022-09-15T02:42:38.557Z,17.82
2022-09-15T02:45:07.519Z,17.80
2022-09-15T02:47:36.938Z,17.86
2022-09-15T02:50:05.539Z,17.89
2022-09-15T02:52:33.579Z,17.91
2022-09-15T02:55:01.579Z,17.92
2022-09-15T02:57:29.573Z,17.92
2022-09-15T03:00:16.509Z,17.94
2022-09-15T03:02:50.084Z,17.96
2022-09-15T03:05:20.182Z,17.95
2022-09-15T03:07:48.288Z,17.94
2022-09-15T03:10:16.716Z,17.96
2022-09-15T03:12:46.221Z,17.96
2022-09-15T03:15:15.964Z,17.94
2022-09-15T03:17:47.125Z,17.94
2022-09-15T03:20:17.216Z,17.89
2022-09-15T03:22:45.757Z,17.89
2022-09-15T03:25:13.945Z,17.90
2022-09-15T03:27:42.557Z,17.87
2022-09-15T03:30:12.617Z,17.89
2022-09-15T03:32:40.712Z,17.84
2022-09-15T03:35:11.835Z,17.83
2022-09-15T03:37:40.003Z,17.77
2022-09-15T03:40:10.730Z,17.75
2022-09-15T03:42:39.064Z,17.73
2022-09-15T03:45:08.176Z,17.71
2022-09-15T03:47:36.217Z,17.72
2022-09-15T03:50:04.498Z,17.68
2022-09-15T03:52:34.106Z,17.66
2022-09-15T03:55:02.207Z,17.65
2022-09-15T03:57:30.654Z,17.63
2022-09-15T03:59:58.796Z,17.63
2022-09-15T04:02:27.106Z,17.63
2022-09-15T04:04:55.232Z,17.67
2022-09-15T04:07:23.250Z,17.66
2022-09-15T04:09:52.684Z,17.70
2022-09-15T04:12:20.807Z,17.72
2022-09-15T04:14:48.839Z,17.73
2022-09-15T04:17:17.047Z,17.73
2022-09-15T04:19:45.173Z,17.75
2022-09-15T04:22:17.555Z,17.79
2022-09-15T04:24:48.217Z,17.83
2022-09-15T04:27:19.169Z,17.84
2022-09-15T04:29:47.373Z,17.85
2022-09-15T04:32:15.413Z,17.91
2022-09-15T04:34:43.424Z,17.96
2022-09-15T04:37:11.989Z,18.01
2022-09-15T04:39:40.287Z,18.06
2022-09-15T04:42:08.371Z,18.13
2022-09-15T04:44:37.824Z,18.21
2022-09-15T04:47:06.400Z,18.25
2022-09-15T04:49:35.260Z,18.29
2022-09-15T04:52:07.725Z,18.39
2022-09-15T04:54:37.625Z,18.49
2022-09-15T04:57:06.059Z,18.52
2022-09-15T04:59:34.230Z,18.55
2022-09-15T05:02:04.158Z,18.62
2022-09-15T05:04:32.230Z,18.69
2022-09-15T05:07:00.239Z,18.72
2022-09-15T05:09:29.687Z,18.73
2022-09-15T05:11:57.955Z,18.73
2022-09-15T05:14:26.055Z,18.74
2022-09-15T05:16:54.056Z,18.77
2022-09-15T05:19:24.023Z,18.71
2022-09-15T05:21:52.217Z,18.78
2022-09-15T05:24:20.450Z,18.78
2022-09-15T05:26:48.434Z,18.77
2022-09-15T05:29:16.751Z,18.75
2022-09-15T05:31:44.811Z,18.71
2022-09-15T05:34:13.042Z,18.69
2022-09-15T05:36:42.619Z,18.68
2022-09-15T05:39:10.736Z,18.65
2022-09-15T05:41:38.832Z,18.65
2022-09-15T05:44:06.843Z,18.68
2022-09-15T05:46:34.943Z,18.70
2022-09-15T05:49:02.972Z,18.72
2022-09-15T05:51:31.211Z,18.73
2022-09-15T05:54:00.625Z,18.75
2022-09-15T05:56:29.068Z,18.79
2022-09-15T05:58:57.273Z,18.82
2022-09-15T06:01:27.291Z,18.89
2022-09-15T06:03:56.261Z,18.98
2022-09-15T06:06:25.726Z,19.12
2022-09-15T06:08:58.439Z,19.18
2022-09-15T06:11:30.297Z,19.27
2022-09-15T06:14:01.106Z,19.32
2022-09-15T06:16:32.089Z,19.37
2022-09-15T06:19:01.150Z,19.40
2022-09-15T06:21:31.046Z,19.46
2022-09-15T06:24:00.766Z,19.59
2022-09-15T06:26:30.582Z,19.66
2022-09-15T06:29:00.702Z,19.75
2022-09-15T06:31:31.654Z,19.73
2022-09-15T06:34:09.670Z,19.82
2022-09-15T06:36:38.903Z,19.95
2022-09-15T06:39:07.245Z,20.08
2022-09-15T06:42:00.765Z,20.22
2022-09-15T06:44:24.695Z,20.26
2022-09-15T06:46:52.700Z,20.35
2022-09-15T06:49:20.839Z,20.37
2022-09-15T06:51:49.371Z,20.42
2022-09-15T06:54:17.643Z,20.38
2022-09-15T06:56:47.460Z,20.41
2022-09-15T06:59:16.960Z,20.38
2022-09-15T07:01:45.424Z,20.42
2022-09-15T07:04:13.429Z,20.42
2022-09-15T07:06:41.622Z,20.42
2022-09-15T07:09:09.717Z,20.49
2022-09-15T07:11:37.761Z,20.62
2022-09-15T07:14:07.375Z,20.71
2022-09-15T07:16:35.565Z,20.74
2022-09-15T07:19:05.435Z,20.88
2022-09-15T07:21:34.690Z,21.21
2022-09-15T07:24:07.045Z,21.42
2022-09-15T07:26:35.907Z,21.61
2022-09-15T07:29:07.660Z,21.81
2022-09-15T07:31:37.672Z,22.17
2022-09-15T07:34:06.647Z,22.53
2022-09-15T07:36:35.271Z,22.72
2022-09-15T07:39:04.169Z,22.64
2022-09-15T07:41:33.386Z,22.60
2022-09-15T07:44:02.250Z,22.58
2022-09-15T07:46:33.469Z,22.33
2022-09-15T07:49:03.358Z,22.34
2022-09-15T07:51:31.897Z,22.39
2022-09-15T07:54:00.881Z,22.37
2022-09-15T07:56:28.955Z,22.52
2022-09-15T07:58:57.912Z,22.45
2022-09-15T08:01:26.080Z,22.46
2022-09-15T08:03:55.966Z,22.45
2022-09-15T08:06:26.200Z,22.51
2022-09-15T08:09:00.157Z,22.54
2022-09-15T08:11:29.619Z,22.81
2022-09-15T08:13:57.829Z,23.06
2022-09-15T08:16:26.377Z,23.26
2022-09-15T08:18:56.123Z,23.45
2022-09-15T08:21:25.202Z,23.70
2022-09-15T08:23:55.348Z,23.86
2022-09-15T08:26:24.415Z,24.02
2022-09-15T08:28:52.636Z,24.11
2022-09-15T08:31:21.097Z,24.27
2022-09-15T08:33:51.440Z,24.49
2022-09-15T08:36:21.237Z,24.81
2022-09-15T08:38:49.589Z,24.99
2022-09-15T08:41:24.141Z,25.14
2022-09-15T08:43:59.751Z,25.19
2022-09-15T08:46:33.126Z,25.26
2022-09-15T08:49:08.147Z,24.99
2022-09-15T08:51:43.465Z,25.04
2022-09-15T08:54:19.453Z,25.25
2022-09-15T08:56:48.417Z,25.56
2022-09-15T08:59:18.215Z,25.82
2022-09-15T09:01:58.674Z,25.92
2022-09-15T09:04:49.701Z,25.91
2022-09-15T09:07:30.747Z,26.06
2022-09-15T09:10:09.777Z,26.21
2022-09-15T09:12:53.461Z,26.44
2022-09-15T09:15:28.551Z,26.62
2022-09-15T09:18:18.433Z,26.60
2022-09-15T09:21:00.031Z,26.69
2022-09-15T09:23:33.120Z,26.79
2022-09-15T09:26:04.775Z,26.39
2022-09-15T09:28:40.378Z,26.06
2022-09-15T09:31:17.185Z,26.29
2022-09-15T09:33:49.312Z,26.58
2022-09-15T09:36:17.695Z,26.71
2022-09-15T09:38:49.442Z,26.85
2022-09-15T09:41:20.020Z,27.08
2022-09-15T09:43:50.196Z,26.94
2022-09-15T09:46:20.434Z,26.56
2022-09-15T09:48:53.557Z,26.50
2022-09-15T09:51:33.319Z,27.15
2022-09-15T09:54:11.722Z,27.50
2022-09-15T09:56:40.431Z,27.61
2022-09-15T09:59:34.546Z,27.49
2022-09-15T10:02:13.889Z,27.85
2022-09-15T10:04:43.476Z,27.84
2022-09-15T10:07:12.202Z,27.32
2022-09-15T10:09:49.916Z,27.29
2022-09-15T10:12:23.675Z,27.41
2022-09-15T10:14:55.567Z,27.50
2022-09-15T10:17:25.527Z,27.45
2022-09-15T10:19:55.223Z,27.50
2022-09-15T10:22:27.405Z,27.23
2022-09-15T10:24:57.402Z,26.95
2022-09-15T10:27:32.134Z,27.24
2022-09-15T10:30:17.031Z,28.03
2022-09-15T10:32:45.479Z,28.54
2022-09-15T10:35:16.749Z,28.87
2022-09-15T10:38:01.195Z,28.99
2022-09-15T10:40:35.490Z,29.03
2022-09-15T10:43:28.110Z,28.84
2022-09-15T10:46:03.267Z,28.75
2022-09-15T10:48:41.255Z,28.78
2022-09-15T10:51:19.941Z,28.71
2022-09-15T10:54:10.249Z,28.62
2022-09-15T10:56:43.066Z,28.64
2022-09-15T10:59:39.759Z,28.54
2022-09-15T11:02:24.663Z,28.49
2022-09-15T11:05:17.936Z,28.25
2022-09-15T11:07:59.245Z,28.28
2022-09-15T11:10:33.977Z,28.22
2022-09-15T11:13:13.016Z,28.16
2022-09-15T11:15:55.266Z,28.18
2022-09-15T11:18:45.384Z,28.05
2022-09-15T11:21:21.959Z,27.82
2022-09-15T11:23:58.406Z,27.54
2022-09-15T11:26:34.679Z,27.28
2022-09-15T11:29:08.835Z,27.02
2022-09-15T11:31:41.183Z,26.86
2022-09-15T11:34:18.942Z,26.60
2022-09-15T11:36:53.107Z,26.38
2022-09-15T11:39:25.883Z,26.36
2022-09-15T11:41:57.628Z,26.11
2022-09-15T11:44:32.018Z,25.91
2022-09-15T11:47:08.767Z,26.02
2022-09-15T11:49:44.655Z,26.06
2022-09-15T11:52:27.446Z,26.34
2022-09-15T11:55:02.316Z,26.55
2022-09-15T11:57:38.188Z,26.73
2022-09-15T12:00:13.814Z,26.82
2022-09-15T12:02:48.198Z,26.88
2022-09-15T12:05:21.438Z,26.77
2022-09-15T12:07:54.807Z,26.48
2022-09-15T12:10:27.934Z,26.29
2022-09-15T12:12:57.659Z,25.93
2022-09-15T12:15:28.319Z,25.74
2022-09-15T12:18:27.286Z,25.61
2022-09-15T12:21:04.415Z,25.42
2022-09-15T12:23:36.941Z,25.30
2022-09-15T12:26:14.834Z,25.20
2022-09-15T12:28:54.422Z,25.21
2022-09-15T12:31:32.698Z,25.16
2022-09-15T12:34:02.214Z,25.19
2022-09-15T12:36:37.973Z,25.15
2022-09-15T12:39:22.147Z,25.27
2022-09-15T12:41:51.196Z,25.36
2022-09-15T12:44:27.418Z,25.31
2022-09-15T12:46:58.557Z,25.37
2022-09-15T12:49:32.048Z,25.32
2022-09-15T12:52:02.971Z,25.29
2022-09-15T12:54:34.243Z,25.23
2022-09-15T12:57:03.355Z,24.90
2022-09-15T12:59:31.708Z,24.07
2022-09-15T13:02:02.735Z,22.06
2022-09-15T13:04:55.062Z,-144.34
2022-09-15T13:07:38.718Z,-144.34
2022-09-15T13:10:34.509Z,-144.34
2022-09-15T13:13:38.542Z,-144.34
2022-09-15T13:16:13.554Z,-144.34
2022-09-15T13:18:44.620Z,-144.34
2022-09-15T13:21:17.039Z,-144.34
2022-09-15T13:23:48.186Z,-144.34
2022-09-15T13:26:24.207Z,-144.34
2022-09-15T13:28:55.724Z,-144.34
2022-09-15T13:31:37.486Z,-144.34
2022-09-15T13:38:16.776Z,-144.34
2022-09-15T13:41:14.490Z,-144.34
2022-09-15T13:44:05.599Z,-144.34
2022-09-15T13:46:48.703Z,-144.34
2022-09-15T13:49:32.962Z,-144.34
2022-09-15T13:52:07.545Z,-144.34
2022-09-15T13:54:35.592Z,-144.34
2022-09-15T13:57:03.962Z,-144.34
2022-09-15T13:59:34.923Z,-144.34
2022-09-15T14:02:08.972Z,-144.34
2022-09-15T14:04:38.701Z,-144.34
2022-09-15T14:07:07.235Z,-144.34
2022-09-15T14:09:41.574Z,-144.34
2022-09-15T14:12:13.147Z,-144.34
2022-09-15T14:14:43.926Z,-144.34
2022-09-15T14:17:22.610Z,-144.34
2022-09-15T14:19:53.900Z,-144.34
2022-09-15T14:22:28.225Z,-144.34
2022-09-15T14:24:58.189Z,-144.34
2022-09-15T14:27:29.025Z,-144.34
2022-09-15T14:29:58.950Z,-144.34
2022-09-15T14:32:29.085Z,-144.34
2022-09-15T14:35:00.969Z,-144.34
2022-09-15T14:37:32.191Z,-144.34
2022-09-15T14:40:02.342Z,-144.34
2022-09-15T14:42:32.724Z,-144.34
2022-09-15T14:48:02.785Z,-144.34
2022-09-15T14:50:33.565Z,-144.34
2022-09-15T14:53:05.520Z,-144.34
2022-09-15T14:55:39.266Z,-144.34
2022-09-15T14:58:14.520Z,-144.34
2022-09-15T15:00:56.313Z,-144.34
2022-09-15T15:03:33.321Z,-144.34
2022-09-15T15:06:25.411Z,-144.34
2022-09-15T15:08:59.390Z,-144.34
2022-09-15T15:11:29.302Z,-144.34
2022-09-15T15:13:58.337Z,-144.34
2022-09-15T15:16:28.968Z,-144.34
2022-09-15T15:18:57.351Z,-144.34
2022-09-15T15:21:45.453Z,-144.34
2022-09-15T15:24:19.888Z,-144.34
2022-09-15T15:26:49.418Z,-144.34
2022-09-15T15:29:41.041Z,-144.34
2022-09-15T15:32:14.034Z,-144.34
2022-09-15T15:34:49.817Z,-144.34
2022-09-15T15:37:27.030Z,-144.34
2022-09-15T15:39:56.116Z,-144.34
2022-09-15T15:42:25.561Z,-144.34
2022-09-15T15:45:02.424Z,-144.34
2022-09-15T15:47:32.270Z,-144.34
2022-09-15T15:50:14.012Z,-144.34
2022-09-15T15:52:45.082Z,-144.34
2022-09-15T15:55:17.393Z,-144.34
2022-09-15T15:57:46.274Z,-144.34
2022-09-15T16:00:22.359Z,-144.34
2022-09-15T16:02:50.913Z,-144.34
2022-09-15T16:05:19.716Z,-144.34
2022-09-15T16:07:52.273Z,-144.34
2022-09-15T16:10:21.656Z,-144.34
2022-09-15T16:12:49.880Z,-144.34
2022-09-15T16:15:20.578Z,-144.34
2022-09-15T16:17:49.325Z,-144.34
2022-09-15T16:20:19.873Z,-144.34
2022-09-15T16:22:49.333Z,-144.34
2022-09-15T16:25:20.056Z,-144.34
2022-09-15T16:27:48.122Z,-144.34
2022-09-15T16:30:16.167Z,-144.34
2022-09-15T16:32:44.236Z,-144.34
2022-09-15T16:35:25.293Z,-144.34
2022-09-15T16:37:54.722Z,-144.34
2022-09-15T16:40:22.827Z,-144.34
2022-09-15T16:42:51.014Z,-144.34
2022-09-15T16:45:25.072Z,-144.34
2022-09-15T16:47:53.161Z,-144.34
2022-09-15T16:50:21.267Z,-144.34
2022-09-15T16:52:49.330Z,-144.34
2022-09-15T16:55:24.981Z,-144.34
2022-09-15T16:57:53.036Z,-144.34
2022-09-15T17:00:21.263Z,-144.34
2022-09-15T17:02:49.502Z,-144.34
2022-09-15T17:05:21.567Z,-144.34
2022-09-15T17:07:49.560Z,-144.34
2022-09-15T17:10:19.387Z,-144.34
2022-09-15T17:12:47.751Z,-144.34
2022-09-15T17:15:28.242Z,-144.34
2022-09-15T17:17:56.937Z,-144.34
2022-09-15T17:20:26.626Z,-144.34
2022-09-15T17:22:55.630Z,-144.34
2022-09-15T17:25:31.305Z,-144.34
2022-09-15T17:28:00.470Z,-144.34
2022-09-15T17:30:30.759Z,-144.34
2022-09-15T17:33:03.263Z,-144.34
2022-09-15T17:35:34.154Z,-144.34
2022-09-15T17:38:04.899Z,-144.34
2022-09-15T17:40:34.932Z,-144.34
2022-09-15T17:43:03.714Z,-144.34
2022-09-15T17:45:34.270Z,-144.34
2022-09-15T17:48:03.118Z,-144.34
2022-09-15T17:50:33.174Z,-144.34
2022-09-15T17:53:01.987Z,-144.34
2022-09-15T17:55:31.880Z,-144.34
2022-09-15T17:58:02.887Z,-144.34
2022-09-15T18:00:33.798Z,-144.34
2022-09-15T18:03:05.685Z,-144.34
2022-09-15T18:05:36.359Z,-144.34
2022-09-15T18:08:06.957Z,-144.34
2022-09-15T18:10:37.238Z,-144.34
2022-09-15T18:13:07.403Z,-144.34
2022-09-15T18:15:36.698Z,-144.34
2022-09-15T18:18:09.012Z,-144.34
2022-09-15T18:20:37.343Z,-144.34
2022-09-15T18:23:05.706Z,-144.34
2022-09-15T18:25:37.203Z,-144.34
2022-09-15T18:28:07.061Z,-144.34
2022-09-15T18:30:40.956Z,-144.34
2022-09-15T18:33:10.194Z,-144.34
2022-09-15T18:35:40.972Z,-144.34
2022-09-15T18:38:10.481Z,-144.34
2022-09-15T18:40:38.999Z,-144.34
2022-09-15T18:43:08.770Z,-144.34
2022-09-15T18:45:37.186Z,-144.34
2022-09-15T18:48:10.497Z,-144.34
2022-09-15T18:50:41.630Z,-144.34
2022-09-15T18:53:10.181Z,-144.34
2022-09-15T18:55:38.538Z,-144.34
2022-09-15T18:58:08.370Z,-144.34
2022-09-15T19:00:36.807Z,-144.34
2022-09-15T19:03:07.266Z,-144.34
2022-09-15T19:05:35.727Z,-144.34
2022-09-15T19:08:04.757Z,-144.34
2022-09-15T19:10:33.177Z,-144.34
2022-09-15T19:13:01.583Z,-144.34
2022-09-15T19:15:33.958Z,-144.34
2022-09-15T19:18:02.413Z,-144.34
2022-09-15T19:20:31.435Z,-144.34
2022-09-15T19:22:59.924Z,-144.34
2022-09-15T19:25:28.219Z,-144.34
2022-09-15T19:27:56.540Z,-144.34
2022-09-15T19:30:24.987Z,-144.34
2022-09-15T19:32:55.106Z,-144.34
2022-09-15T19:35:23.576Z,-144.34
2022-09-15T19:37:51.867Z,-144.34
2022-09-15T19:40:21.157Z,-144.34
2022-09-15T19:42:51.432Z,-144.34
2022-09-15T19:45:19.738Z,-144.34
2022-09-15T19:47:47.927Z,-144.34
2022-09-15T19:50:17.702Z,-144.34
2022-09-15T19:52:45.934Z,-144.34
2022-09-15T19:55:14.318Z,-144.34
2022-09-15T19:57:43.499Z,-144.34
2022-09-15T20:00:14.548Z,-144.34
2022-09-15T20:02:42.711Z,-144.34
2022-09-15T20:05:10.980Z,-144.34
2022-09-15T20:07:40.346Z,-144.34
2022-09-15T20:10:08.756Z,-144.34
2022-09-15T20:12:36.744Z,-144.34
2022-09-15T20:15:05.703Z,-144.34
2022-09-15T20:17:34.101Z,-144.34
2022-09-15T20:20:02.104Z,-144.34
2022-09-15T20:22:30.062Z,-144.34
2022-09-15T20:24:59.417Z,-144.34
2022-09-15T20:27:27.465Z,-144.34
2022-09-15T20:29:57.343Z,-144.34
2022-09-15T20:32:28.411Z,-144.34
2022-09-15T20:34:56.865Z,-144.34
2022-09-15T20:37:24.939Z,-144.34
2022-09-15T20:39:52.989Z,-144.34
2022-09-15T20:42:22.412Z,-144.34
2022-09-15T20:44:50.512Z,-144.34
2022-09-15T20:47:18.622Z,-144.34
2022-09-15T20:49:46.650Z,-144.34
2022-09-15T20:52:14.738Z,-144.34
2022-09-15T20:54:43.115Z,-144.34
2022-09-15T20:57:11.758Z,-144.34
2022-09-15T20:59:43.011Z,-144.34
2022-09-15T21:02:11.483Z,-144.34
2022-09-15T21:04:39.555Z,-144.34
2022-09-15T21:07:07.628Z,-144.34
2022-09-15T21:09:35.809Z,-144.34
2022-09-15T21:12:04.204Z,-144.34
2022-09-15T21:14:32.219Z,-144.34
2022-09-15T21:17:04.576Z,-144.34
2022-09-15T21:19:32.705Z,-144.34
2022-09-15T21:22:01.537Z,-144.34
2022-09-15T21:24:29.583Z,-144.34
2022-09-15T21:27:14.751Z,-144.34
2022-09-15T21:29:42.788Z,-144.34
2022-09-15T21:32:12.183Z,-144.34
2022-09-15T21:34:40.184Z,-144.34
2022-09-15T21:37:08.200Z,-144.34
2022-09-15T21:39:36.256Z,-144.34
2022-09-15T21:42:05.340Z,-144.34
2022-09-15T21:44:33.757Z,-144.34
2022-09-15T21:47:01.748Z,-144.34
2022-09-15T21:49:31.419Z,-144.34
2022-09-15T21:51:59.484Z,-144.34
2022-09-15T21:54:27.496Z,-144.34
2022-09-15T21:56:55.502Z,-144.34
2022-09-15T21:59:23.521Z,-144.34
2022-09-15T22:01:51.722Z,-144.34
2022-09-15T22:04:19.824Z,-144.34
2022-09-15T22:06:50.326Z,-144.34
2022-09-15T22:09:21.414Z,-144.34
2022-09-15T22:11:49.950Z,-144.34
2022-09-15T22:14:18.004Z,-144.34
2022-09-15T22:16:46.013Z,-144.34
2022-09-15T22:19:14.328Z,-144.34
2022-09-15T22:21:43.074Z,-144.34
2022-09-15T22:24:14.037Z,-144.34
2022-09-15T22:26:43.634Z,-144.34
2022-09-15T22:29:12.500Z,-144.34
2022-09-15T22:31:42.240Z,-144.34
2022-09-15T22:34:10.813Z,-144.34
2022-09-15T22:36:39.278Z,-144.34
2022-09-15T22:39:07.471Z,-144.34
2022-09-15T22:41:39.070Z,-144.34
2022-09-15T22:44:08.147Z,-144.34
2022-09-15T22:46:36.197Z,-144.34
2022-09-15T22:49:04.287Z,-144.34
2022-09-15T22:51:32.291Z,-144.34
2022-09-15T22:54:03.085Z,-144.34
2022-09-15T22:56:31.334Z,-144.34
2022-09-15T22:59:00.874Z,-144.34
2022-09-15T23:01:30.664Z,-144.34
2022-09-15T23:04:01.019Z,-144.34
2022-09-15T23:06:31.845Z,-144.34
2022-09-15T23:09:01.459Z,-144.34
2022-09-15T23:11:32.377Z,-144.34
2022-09-15T23:14:02.737Z,-144.34
2022-09-15T23:16:32.492Z,-144.34
2022-09-15T23:19:00.734Z,-144.34
2022-09-15T23:21:29.078Z,-144.34
2022-09-15T23:23:57.224Z,-144.34
2022-09-15T23:26:26.215Z,-144.34
2022-09-15T23:28:54.795Z,-144.34
2022-09-15T23:31:26.331Z,-144.34
2022-09-15T23:33:54.408Z,-144.34
2022-09-15T23:36:22.478Z,-144.34
2022-09-15T23:38:51.152Z,-144.34
2022-09-15T23:41:20.101Z,-144.34
2022-09-15T23:43:48.464Z,-144.34
2022-09-15T23:46:16.596Z,-144.34
2022-09-15T23:48:46.097Z,-144.34
2022-09-15T23:51:14.116Z,-144.34
2022-09-15T23:53:42.377Z,-144.34
2022-09-15T23:56:10.451Z,-144.34
2022-09-15T23:58:39.004Z,-144.34
